createdAt,value
2023-05-22T00:01:46.887Z,8.82
2023-05-22T00:04:13.771Z,9.18
2023-05-22T00:06:43.854Z,9.27
2023-05-22T00:09:11.072Z,9.02
2023-05-22T00:11:37.865Z,9.57
2023-05-22T00:14:04.588Z,9.05
2023-05-22T00:16:31.464Z,8.95
2023-05-22T00:18:59.181Z,9.82
2023-05-22T00:21:27.808Z,8.80
2023-05-22T00:23:54.509Z,8.57
2023-05-22T00:26:23.377Z,10.52
2023-05-22T00:28:50.329Z,10.45
2023-05-22T00:31:17.024Z,11.15
2023-05-22T00:33:43.789Z,9.98
2023-05-22T00:36:10.756Z,10.07
2023-05-22T00:38:38.165Z,9.63
2023-05-22T00:41:06.450Z,9.55
2023-05-22T00:43:33.802Z,10.18
2023-05-22T00:46:00.546Z,10.00
2023-05-22T00:48:27.723Z,9.38
2023-05-22T00:50:55.839Z,9.15
2023-05-22T00:53:24.582Z,9.25
2023-05-22T00:55:52.274Z,10.25
2023-05-22T00:58:19.488Z,10.25
2023-05-22T01:00:46.873Z,9.93
2023-05-22T01:03:14.848Z,10.90
2023-05-22T01:05:42.766Z,9.30
2023-05-22T01:08:09.817Z,10.02
2023-05-22T01:10:38.243Z,10.23
2023-05-22T01:13:12.768Z,10.25
2023-05-22T01:15:50.044Z,10.55
2023-05-22T01:18:32.534Z,10.30
2023-05-22T01:21:24.234Z,10.30
2023-05-22T01:24:13.944Z,10.00
2023-05-22T01:26:58.893Z,9.27
2023-05-22T01:29:29.052Z,9.90
2023-05-22T01:31:58.371Z,9.32
2023-05-22T01:34:25.832Z,8.90
2023-05-22T01:36:54.816Z,9.27
2023-05-22T01:39:22.503Z,7.82
2023-05-22T01:41:49.642Z,8.05
2023-05-22T01:44:16.507Z,9.55
2023-05-22T01:46:43.236Z,9.52
2023-05-22T01:49:09.855Z,9.20
2023-05-22T01:51:58.027Z,9.23
2023-05-22T01:54:58.375Z,8.93
2023-05-22T01:57:28.821Z,9.45
2023-05-22T02:00:15.475Z,9.07
2023-05-22T02:02:49.533Z,8.73
2023-05-22T02:05:21.224Z,7.95
2023-05-22T02:07:48.432Z,8.55
2023-05-22T02:10:17.857Z,8.57
2023-05-22T02:12:44.918Z,8.45
2023-05-22T02:15:11.841Z,9.23
2023-05-22T02:17:41.931Z,8.77
2023-05-22T02:20:15.280Z,9.45
2023-05-22T02:22:44.989Z,8.00
2023-05-22T02:25:15.186Z,8.55
2023-05-22T02:27:46.117Z,8.93
2023-05-22T02:30:13.989Z,8.57
2023-05-22T02:32:42.144Z,9.35
2023-05-22T02:35:09.663Z,7.93
2023-05-22T02:37:36.601Z,8.38
2023-05-22T02:40:06.281Z,9.15
2023-05-22T02:42:33.375Z,8.02
2023-05-22T02:45:01.208Z,9.93
2023-05-22T02:47:27.991Z,8.93
2023-05-22T02:49:57.861Z,9.35
2023-05-22T02:52:25.079Z,8.48
2023-05-22T02:54:51.888Z,9.00
2023-05-22T02:57:19.784Z,8.90
2023-05-22T02:59:46.651Z,8.77
2023-05-22T03:02:15.391Z,8.63
2023-05-22T03:04:42.262Z,9.18
2023-05-22T03:07:09.042Z,8.45
2023-05-22T03:09:36.244Z,8.43
2023-05-22T03:12:03.024Z,8.90
2023-05-22T03:14:30.071Z,8.38
2023-05-22T03:16:58.925Z,9.95
2023-05-22T03:19:26.542Z,9.90
2023-05-22T03:21:53.361Z,10.38
2023-05-22T03:24:20.965Z,11.25
2023-05-22T03:26:47.723Z,11.25
2023-05-22T03:29:20.678Z,8.52
2023-05-22T03:31:47.637Z,8.98
2023-05-22T03:34:15.020Z,9.95
2023-05-22T03:36:45.160Z,9.10
2023-05-22T03:39:13.376Z,9.18
2023-05-22T03:41:48.425Z,9.18
2023-05-22T03:44:15.385Z,10.60
2023-05-22T03:46:43.213Z,10.27
2023-05-22T03:49:09.963Z,10.75
2023-05-22T03:51:37.023Z,10.77
2023-05-22T03:54:03.926Z,10.73
2023-05-22T03:56:30.679Z,10.82
2023-05-22T03:58:57.448Z,10.27
2023-05-22T04:01:24.374Z,9.90
2023-05-22T04:03:51.288Z,10.52
2023-05-22T04:06:21.669Z,9.23
2023-05-22T04:11:19.374Z,10.15
2023-05-22T04:13:49.000Z,9.48
2023-05-22T04:16:17.578Z,9.60
2023-05-22T04:18:44.551Z,8.45
2023-05-22T04:21:12.773Z,8.85
2023-05-22T04:23:43.216Z,8.38
2023-05-22T04:28:37.908Z,9.68
2023-05-22T04:31:06.794Z,9.82
2023-05-22T04:33:34.570Z,9.25
2023-05-22T04:36:02.439Z,8.65
2023-05-22T04:38:29.226Z,8.45
2023-05-22T04:40:56.679Z,7.68
2023-05-22T04:43:26.390Z,7.82
2023-05-22T04:45:54.190Z,8.55
2023-05-22T04:48:20.924Z,7.63
2023-05-22T04:50:48.295Z,8.10
2023-05-22T04:53:15.041Z,8.18
2023-05-22T04:55:42.347Z,8.20
2023-05-22T04:58:09.053Z,7.78
2023-05-22T05:00:35.949Z,8.45
2023-05-22T05:03:03.844Z,7.72
2023-05-22T05:05:30.706Z,7.75
2023-05-22T05:07:57.406Z,7.63
2023-05-22T05:10:24.417Z,7.00
2023-05-22T05:12:52.471Z,8.50
2023-05-22T05:15:19.379Z,7.85
2023-05-22T05:17:47.566Z,8.00
2023-05-22T05:20:14.747Z,9.48
2023-05-22T05:22:43.843Z,9.38
2023-05-22T05:25:11.775Z,9.20
2023-05-22T05:27:39.832Z,9.20
2023-05-22T05:30:07.263Z,10.02
2023-05-22T05:33:02.973Z,9.32
2023-05-22T05:35:36.828Z,7.32
2023-05-22T05:38:08.500Z,9.68
2023-05-22T05:40:37.765Z,8.73
2023-05-22T05:43:09.180Z,8.57
2023-05-22T05:45:36.302Z,9.20
2023-05-22T05:48:03.039Z,8.27
2023-05-22T05:50:30.722Z,8.55
2023-05-22T05:52:57.974Z,7.55
2023-05-22T05:55:24.763Z,8.80
2023-05-22T05:57:52.351Z,9.20
2023-05-22T06:00:26.384Z,8.95
2023-05-22T06:02:55.045Z,8.13
2023-05-22T06:05:32.210Z,8.80
2023-05-22T06:08:21.882Z,8.57
2023-05-22T06:10:48.975Z,9.13
2023-05-22T06:13:30.553Z,8.85
2023-05-22T06:15:59.582Z,9.30
2023-05-22T06:18:28.471Z,9.65
2023-05-22T06:20:59.023Z,8.95
2023-05-22T06:23:25.932Z,9.10
2023-05-22T06:25:54.602Z,8.65
2023-05-22T06:28:21.516Z,7.82
2023-05-22T06:30:49.372Z,9.10
2023-05-22T06:33:19.024Z,7.93
2023-05-22T06:35:45.973Z,7.32
2023-05-22T06:38:12.862Z,7.82
2023-05-22T06:40:41.802Z,8.15
2023-05-22T06:43:21.480Z,8.32
2023-05-22T06:45:59.049Z,8.23
2023-05-22T06:48:37.979Z,7.93
2023-05-22T06:51:11.773Z,8.32
2023-05-22T06:53:40.782Z,7.22
2023-05-22T06:56:12.969Z,7.72
2023-05-22T06:58:51.335Z,6.97
2023-05-22T07:01:19.305Z,7.22
2023-05-22T07:04:00.411Z,6.80
2023-05-22T07:06:41.767Z,7.70
2023-05-22T07:09:11.009Z,7.60
2023-05-22T07:11:38.915Z,8.00
2023-05-22T07:14:12.560Z,7.50
2023-05-22T07:16:43.965Z,6.63
2023-05-22T07:19:12.522Z,6.78
2023-05-22T07:21:40.720Z,7.60
2023-05-22T07:24:11.463Z,6.00
2023-05-22T07:26:46.492Z,7.05
2023-05-22T07:29:21.280Z,6.32
2023-05-22T07:31:51.347Z,6.80
2023-05-22T07:34:18.395Z,7.63
2023-05-22T07:36:47.228Z,7.53
2023-05-22T07:39:16.178Z,6.25
2023-05-22T07:41:50.177Z,6.38
2023-05-22T07:44:19.999Z,6.85
2023-05-22T07:46:47.542Z,5.75
2023-05-22T07:49:22.094Z,6.38
2023-05-22T07:51:49.996Z,6.25
2023-05-22T07:54:18.550Z,6.80
2023-05-22T07:56:49.629Z,6.55
2023-05-22T07:59:19.676Z,7.30
2023-05-22T08:01:46.469Z,6.85
2023-05-22T08:04:13.390Z,6.38
2023-05-22T08:06:41.198Z,6.93
2023-05-22T08:09:07.814Z,7.68
2023-05-22T08:11:35.093Z,7.70
2023-05-22T08:14:01.854Z,6.57
2023-05-22T08:16:28.578Z,7.00
2023-05-22T08:18:55.553Z,6.28
2023-05-22T08:21:22.213Z,6.85
2023-05-22T08:23:48.919Z,6.50
2023-05-22T08:26:16.049Z,6.18
2023-05-22T08:28:44.385Z,6.72
2023-05-22T08:31:11.776Z,6.45
2023-05-22T08:33:39.321Z,6.22
2023-05-22T08:36:06.348Z,6.78
2023-05-22T08:38:33.087Z,6.35
2023-05-22T08:41:01.300Z,6.68
2023-05-22T08:43:28.712Z,6.97
2023-05-22T08:46:06.076Z,7.20
2023-05-22T08:48:33.661Z,7.15
2023-05-22T08:51:05.160Z,7.05
2023-05-22T08:53:35.494Z,6.55
2023-05-22T08:56:06.016Z,6.70
2023-05-22T08:58:33.896Z,7.55
2023-05-22T09:01:00.966Z,6.70
2023-05-22T09:03:33.222Z,7.05
2023-05-22T09:06:01.231Z,6.43
2023-05-22T09:08:28.969Z,5.65
2023-05-22T09:10:56.414Z,7.15
2023-05-22T09:13:32.446Z,6.43
2023-05-22T09:16:11.455Z,6.30
2023-05-22T09:18:38.657Z,6.78
2023-05-22T09:21:11.537Z,6.63
2023-05-22T09:23:50.381Z,7.38
2023-05-22T09:26:17.493Z,7.18
2023-05-22T09:28:44.571Z,6.72
2023-05-22T09:31:11.475Z,6.68
2023-05-22T09:33:38.220Z,6.72
2023-05-22T09:36:09.115Z,6.85
2023-05-22T09:38:36.124Z,7.60
2023-05-22T09:41:02.988Z,8.15
2023-05-22T09:43:29.874Z,8.00
2023-05-22T09:46:06.478Z,7.28
2023-05-22T09:48:36.582Z,8.27
2023-05-22T09:53:32.415Z,8.05
2023-05-22T09:56:00.518Z,8.77
2023-05-22T09:58:31.035Z,7.72
2023-05-22T10:00:58.308Z,8.88
2023-05-22T10:03:27.084Z,8.80
2023-05-22T10:05:58.029Z,8.38
2023-05-22T10:08:27.020Z,7.78
2023-05-22T10:10:53.926Z,7.68
2023-05-22T10:13:21.576Z,7.75
2023-05-22T10:15:49.410Z,7.80
2023-05-22T10:18:17.446Z,7.72
2023-05-22T10:20:45.040Z,7.82
2023-05-22T10:23:12.420Z,7.65
2023-05-22T10:25:39.168Z,7.05
2023-05-22T10:28:07.114Z,6.97
2023-05-22T10:30:36.847Z,6.97
2023-05-22T10:33:26.166Z,7.28
2023-05-22T10:35:54.201Z,7.30
2023-05-22T10:38:44.629Z,7.32
2023-05-22T10:41:11.607Z,6.75
2023-05-22T10:43:44.622Z,6.88
2023-05-22T10:46:14.304Z,6.80
2023-05-22T10:48:48.531Z,7.22
2023-05-22T10:51:19.384Z,6.88
2023-05-22T10:53:53.263Z,6.40
2023-05-22T10:56:20.410Z,7.15
2023-05-22T10:59:08.171Z,6.95
2023-05-22T11:01:37.834Z,7.65
2023-05-22T11:04:20.298Z,7.40
2023-05-22T11:07:05.418Z,7.53
2023-05-22T11:09:45.918Z,8.70
2023-05-22T11:12:21.363Z,8.07
2023-05-22T11:14:58.712Z,8.18
2023-05-22T11:17:30.765Z,7.32
2023-05-22T11:20:07.493Z,8.77
2023-05-22T11:22:36.762Z,7.78
2023-05-22T11:25:07.173Z,8.27
2023-05-22T11:27:34.126Z,7.75
2023-05-22T11:30:01.839Z,8.18
2023-05-22T11:32:29.001Z,7.40
2023-05-22T11:34:56.875Z,7.80
2023-05-22T11:37:23.843Z,7.75
2023-05-22T11:39:52.276Z,7.07
2023-05-22T11:42:19.810Z,8.13
2023-05-22T11:44:46.582Z,7.20
2023-05-22T11:47:13.832Z,8.50
2023-05-22T11:49:44.046Z,9.00
2023-05-22T11:52:11.015Z,10.68
2023-05-22T11:54:38.963Z,12.23
2023-05-22T11:57:09.161Z,11.60
2023-05-22T11:59:36.224Z,11.75
2023-05-22T12:02:03.058Z,10.82
2023-05-22T12:04:29.860Z,11.43
2023-05-22T12:06:56.889Z,12.20
2023-05-22T12:09:24.015Z,11.10
2023-05-22T12:11:50.866Z,10.98
2023-05-22T12:14:18.667Z,12.00
2023-05-22T12:16:45.384Z,12.52
2023-05-22T12:19:13.776Z,12.15
2023-05-22T12:21:43.896Z,12.52
2023-05-22T12:24:11.072Z,12.52
2023-05-22T12:26:38.009Z,11.88
2023-05-22T12:29:04.739Z,11.50
2023-05-22T12:31:36.751Z,11.35
2023-05-22T12:34:05.598Z,10.45
2023-05-22T12:36:38.390Z,9.65
2023-05-22T12:39:13.799Z,10.38
2023-05-22T12:41:40.747Z,9.20
2023-05-22T12:44:07.760Z,10.13
2023-05-22T12:46:34.920Z,8.90
2023-05-22T12:49:01.896Z,9.30
2023-05-22T12:51:31.471Z,9.25
2023-05-22T12:54:02.496Z,9.77
2023-05-22T12:56:29.967Z,9.30
2023-05-22T12:58:57.992Z,9.20
2023-05-22T13:01:25.183Z,9.80
2023-05-22T13:03:52.605Z,9.38
2023-05-22T13:06:20.436Z,9.20
2023-05-22T13:08:47.135Z,9.38
2023-05-22T13:11:13.904Z,10.18
2023-05-22T13:13:40.589Z,9.52
2023-05-22T13:16:07.414Z,9.57
2023-05-22T13:18:34.122Z,9.82
2023-05-22T13:21:00.932Z,8.65
2023-05-22T13:23:27.921Z,9.13
2023-05-22T13:25:54.696Z,8.45
2023-05-22T13:28:21.399Z,8.95
2023-05-22T13:30:48.060Z,8.30
2023-05-22T13:33:14.839Z,9.45
2023-05-22T13:35:41.782Z,6.97
2023-05-22T13:38:09.059Z,7.25
2023-05-22T13:40:35.821Z,7.20
2023-05-22T13:43:03.117Z,7.00
2023-05-22T13:45:31.246Z,7.30
2023-05-22T13:47:57.981Z,6.78
2023-05-22T13:50:24.819Z,6.22
2023-05-22T13:52:54.335Z,5.40
2023-05-22T13:55:22.944Z,5.60
2023-05-22T13:57:49.589Z,6.32
2023-05-22T14:00:16.711Z,5.50
2023-05-22T14:02:44.471Z,6.00
2023-05-22T14:05:11.319Z,5.70
2023-05-22T14:07:38.148Z,5.68
2023-05-22T14:10:05.326Z,5.85
2023-05-22T14:12:32.065Z,5.68
2023-05-22T14:14:58.796Z,5.75
2023-05-22T14:17:25.403Z,5.65
2023-05-22T14:19:52.234Z,5.60
2023-05-22T14:22:18.905Z,5.45
2023-05-22T14:24:45.698Z,5.35
2023-05-22T14:27:12.318Z,6.47
2023-05-22T14:29:39.018Z,6.15
2023-05-22T14:32:05.827Z,6.30
2023-05-22T14:34:32.636Z,5.78
2023-05-22T14:36:59.352Z,5.78
2023-05-22T14:39:26.502Z,5.85
2023-05-22T14:41:53.919Z,6.70
2023-05-22T14:44:22.732Z,7.65
2023-05-22T14:46:51.036Z,6.25
2023-05-22T14:49:18.037Z,6.15
2023-05-22T14:51:48.104Z,6.55
2023-05-22T14:54:17.655Z,7.35
2023-05-22T14:56:44.997Z,6.53
2023-05-22T14:59:12.067Z,6.75
2023-05-22T15:01:39.268Z,7.13
2023-05-22T15:04:06.379Z,6.13
2023-05-22T15:06:33.147Z,6.90
2023-05-22T15:08:59.875Z,7.65
2023-05-22T15:11:26.985Z,7.38
2023-05-22T15:13:56.531Z,8.40
2023-05-22T15:16:23.277Z,7.28
2023-05-22T15:18:50.309Z,7.43
2023-05-22T15:21:17.379Z,6.88
2023-05-22T15:23:44.298Z,6.03
2023-05-22T15:26:12.305Z,5.85
2023-05-22T15:28:39.052Z,6.10
2023-05-22T15:31:05.657Z,6.85
2023-05-22T15:33:33.984Z,6.45
2023-05-22T15:36:00.878Z,5.57
2023-05-22T15:38:28.376Z,5.60
2023-05-22T15:40:55.158Z,5.50
2023-05-22T15:43:24.295Z,4.97
2023-05-22T15:45:52.428Z,4.70
2023-05-22T15:48:19.162Z,5.30
2023-05-22T15:50:45.870Z,4.13
2023-05-22T15:53:12.628Z,4.20
2023-05-22T15:55:39.606Z,4.50
2023-05-22T15:58:07.967Z,4.13
2023-05-22T16:00:41.153Z,4.15
2023-05-22T16:03:08.971Z,4.35
2023-05-22T16:05:38.854Z,4.38
2023-05-22T16:08:12.721Z,4.22
2023-05-22T16:10:41.653Z,4.53
2023-05-22T16:13:10.638Z,4.38
2023-05-22T16:15:39.968Z,4.82
2023-05-22T16:18:07.932Z,4.50
2023-05-22T16:20:35.880Z,4.63
2023-05-22T16:23:02.609Z,4.00
2023-05-22T16:25:29.261Z,4.43
2023-05-22T16:27:56.016Z,4.05
2023-05-22T16:30:22.731Z,5.03
2023-05-22T16:32:49.603Z,4.22
2023-05-22T16:35:16.415Z,4.60
2023-05-22T16:37:43.220Z,4.57
2023-05-22T16:40:10.375Z,4.05
2023-05-22T16:42:38.352Z,4.20
2023-05-22T16:45:06.201Z,4.50
2023-05-22T16:47:33.109Z,4.13
2023-05-22T16:50:00.019Z,4.30
2023-05-22T16:52:26.830Z,3.67
2023-05-22T16:54:53.616Z,4.10
2023-05-22T16:57:20.438Z,4.20
2023-05-22T16:59:47.344Z,4.10
2023-05-22T17:02:14.317Z,4.15
2023-05-22T17:04:41.132Z,4.00
2023-05-22T17:07:08.009Z,3.90
2023-05-22T17:09:34.674Z,4.50
2023-05-22T17:12:01.497Z,4.30
2023-05-22T17:14:28.235Z,4.05
2023-05-22T17:16:55.801Z,4.10
2023-05-22T17:19:22.992Z,4.05
2023-05-22T17:21:49.868Z,4.18
2023-05-22T17:24:16.628Z,3.92
2023-05-22T17:26:44.088Z,4.35
2023-05-22T17:29:11.138Z,4.30
2023-05-22T17:31:39.542Z,4.25
2023-05-22T17:34:06.606Z,5.27
2023-05-22T17:36:33.470Z,4.70
2023-05-22T17:39:00.730Z,4.40
2023-05-22T17:41:27.553Z,4.97
2023-05-22T17:43:57.129Z,4.85
2023-05-22T17:46:23.912Z,5.25
2023-05-22T17:48:51.254Z,5.25
2023-05-22T17:51:18.120Z,5.88
2023-05-22T17:53:44.832Z,5.18
2023-05-22T17:56:11.551Z,5.88
2023-05-22T17:58:38.292Z,5.35
2023-05-22T18:01:05.054Z,5.70
2023-05-22T18:03:31.939Z,6.00
2023-05-22T18:05:58.756Z,6.75
2023-05-22T18:08:25.634Z,6.20
2023-05-22T18:10:52.405Z,6.55
2023-05-22T18:13:19.605Z,6.35
2023-05-22T18:15:48.349Z,6.57
2023-05-22T18:18:16.331Z,7.35
2023-05-22T18:20:43.171Z,7.07
2023-05-22T18:23:09.945Z,7.03
2023-05-22T18:25:36.594Z,7.18
2023-05-22T18:28:03.334Z,6.88
2023-05-22T18:30:30.223Z,8.00
2023-05-22T18:32:57.115Z,6.80
2023-05-22T18:35:23.893Z,7.43
2023-05-22T18:37:50.665Z,8.07
2023-05-22T18:40:17.769Z,8.10
2023-05-22T18:42:44.586Z,9.93
2023-05-22T18:45:11.871Z,8.43
2023-05-22T18:47:39.106Z,8.63
2023-05-22T18:50:06.757Z,8.05
2023-05-22T18:52:33.532Z,8.88
2023-05-22T18:55:00.278Z,9.30
2023-05-22T18:57:27.010Z,9.52
2023-05-22T18:59:53.827Z,9.23
2023-05-22T19:02:21.939Z,9.82
2023-05-22T19:04:50.076Z,9.05
2023-05-22T19:07:16.881Z,8.95
2023-05-22T19:09:43.715Z,9.35
2023-05-22T19:12:10.518Z,9.68
2023-05-22T19:14:37.220Z,9.68
2023-05-22T19:17:04.223Z,10.52
2023-05-22T19:19:31.053Z,10.10
2023-05-22T19:21:57.840Z,9.63
2023-05-22T19:24:26.373Z,9.05
2023-05-22T19:26:53.095Z,9.60
2023-05-22T19:29:19.802Z,10.13
2023-05-22T19:31:46.594Z,9.32
2023-05-22T19:34:13.299Z,9.18
2023-05-22T19:36:40.041Z,9.68
2023-05-22T19:39:06.680Z,9.50
2023-05-22T19:41:33.412Z,9.77
2023-05-22T19:44:00.010Z,8.85
2023-05-22T19:46:26.877Z,9.38
2023-05-22T19:48:53.953Z,8.88
2023-05-22T19:51:20.727Z,9.70
2023-05-22T19:53:47.397Z,9.35
2023-05-22T19:56:14.131Z,9.93
2023-05-22T19:58:41.215Z,9.43
2023-05-22T20:01:07.927Z,9.55
2023-05-22T20:03:34.752Z,8.35
2023-05-22T20:06:01.835Z,9.90
2023-05-22T20:08:29.030Z,9.98
2023-05-22T20:10:55.778Z,9.85
2023-05-22T20:13:22.735Z,10.18
2023-05-22T20:15:51.406Z,9.20
2023-05-22T20:18:18.614Z,9.88
2023-05-22T20:20:45.355Z,9.73
2023-05-22T20:23:12.008Z,9.98
2023-05-22T20:25:39.278Z,9.40
2023-05-22T20:28:06.588Z,10.27
2023-05-22T20:30:33.296Z,10.23
2023-05-22T20:33:00.548Z,9.52
2023-05-22T20:35:27.381Z,10.80
2023-05-22T20:37:54.066Z,9.40
2023-05-22T20:40:20.933Z,9.60
2023-05-22T20:42:47.720Z,10.45
2023-05-22T20:45:15.911Z,9.80
2023-05-22T20:47:43.560Z,9.98
2023-05-22T20:50:11.371Z,9.88
2023-05-22T20:52:38.356Z,9.57
2023-05-22T20:55:06.842Z,9.90
2023-05-22T20:57:34.548Z,9.52
2023-05-22T21:00:01.539Z,10.13
2023-05-22T21:02:28.365Z,9.43
2023-05-22T21:04:55.452Z,9.02
2023-05-22T21:07:22.588Z,9.52
2023-05-22T21:09:49.956Z,9.82
2023-05-22T21:12:16.950Z,10.15
2023-05-22T21:14:44.148Z,10.10
2023-05-22T21:17:11.159Z,11.02
2023-05-22T21:19:38.747Z,9.85
2023-05-22T21:22:05.599Z,10.50
2023-05-22T21:24:32.655Z,9.85
2023-05-22T21:26:59.336Z,10.63
2023-05-22T21:29:26.192Z,9.23
2023-05-22T21:31:52.965Z,10.18
2023-05-22T21:34:19.939Z,10.75
2023-05-22T21:36:46.587Z,9.63
2023-05-22T21:39:13.405Z,9.00
2023-05-22T21:41:40.806Z,9.45
2023-05-22T21:44:10.050Z,9.13
2023-05-22T21:46:37.281Z,10.13
2023-05-22T21:49:05.947Z,10.50
2023-05-22T21:51:32.640Z,10.13
2023-05-22T21:53:59.334Z,9.65
2023-05-22T21:56:27.017Z,9.18
2023-05-22T21:58:53.796Z,8.70
2023-05-22T22:01:20.808Z,8.70
2023-05-22T22:03:47.605Z,10.30
2023-05-22T22:06:14.351Z,9.35
2023-05-22T22:08:41.154Z,10.13
2023-05-22T22:11:07.818Z,9.68
2023-05-22T22:13:34.565Z,10.68
2023-05-22T22:16:01.559Z,11.65
2023-05-22T22:18:32.322Z,10.45
2023-05-22T22:21:02.234Z,11.38
2023-05-22T22:23:29.382Z,10.35
2023-05-22T22:25:56.213Z,11.02
2023-05-22T22:28:22.979Z,10.43
2023-05-22T22:30:49.829Z,10.85
2023-05-22T22:33:19.470Z,11.27
2023-05-22T22:35:46.340Z,10.90
2023-05-22T22:38:13.066Z,11.13
2023-05-22T22:40:40.987Z,11.38
2023-05-22T22:43:08.615Z,11.48
2023-05-22T22:45:36.540Z,10.50
2023-05-22T22:48:03.793Z,9.82
2023-05-22T22:50:30.629Z,10.60
2023-05-22T22:53:00.251Z,10.13
2023-05-22T22:55:28.157Z,10.88
2023-05-22T22:57:55.012Z,10.02
2023-05-22T23:00:21.770Z,9.70
2023-05-22T23:02:48.598Z,11.20
2023-05-22T23:05:20.013Z,9.60
2023-05-22T23:07:47.698Z,9.35
2023-05-22T23:10:15.706Z,11.00
2023-05-22T23:12:42.940Z,11.55
2023-05-22T23:15:25.852Z,10.90
2023-05-22T23:17:52.648Z,11.43
2023-05-22T23:20:19.282Z,10.68
2023-05-22T23:22:47.250Z,10.85
2023-05-22T23:25:14.537Z,9.93
2023-05-22T23:27:44.513Z,9.43
2023-05-22T23:30:13.275Z,10.57
2023-05-22T23:32:43.795Z,10.02
2023-05-22T23:35:11.203Z,9.27
2023-05-22T23:37:38.290Z,10.48
2023-05-22T23:40:06.771Z,9.85
2023-05-22T23:42:35.648Z,10.35
2023-05-22T23:45:04.030Z,9.98
2023-05-22T23:47:30.798Z,9.68
2023-05-22T23:49:59.510Z,11.02
2023-05-22T23:52:26.879Z,10.73
2023-05-22T23:54:53.720Z,10.60
2023-05-22T23:57:20.581Z,11.75
2023-05-22T23:59:47.182Z,11.18
